sensor_id;sensor_type;location;lat;lon;timestamp;P1;durP1;ratioP1;P2;durP2;ratioP2
79047;SDS011;68680;50.764;6.120;2024-03-23T00:53:28;24.02;;;6.32;;
79047;SDS011;68680;50.764;6.120;2024-03-23T00:55:55;25.73;;;6.75;;
79047;SDS011;68680;50.764;6.120;2024-03-23T00:58:21;24.25;;;6.03;;
79047;SDS011;68680;50.764;6.120;2024-03-23T01:00:47;27.38;;;6.00;;
79047;SDS011;68680;50.764;6.120;2024-03-23T01:03:13;27.90;;;6.63;;
79047;SDS011;68680;50.764;6.120;2024-03-23T01:05:38;28.92;;;6.97;;
79047;SDS011;68680;50.764;6.120;2024-03-23T01:08:04;28.88;;;7.50;;
79047;SDS011;68680;50.764;6.120;2024-03-23T01:10:32;29.85;;;6.75;;
79047;SDS011;68680;50.764;6.120;2024-03-23T01:12:58;33.17;;;6.28;;
79047;SDS011;68680;50.764;6.120;2024-03-23T01:15:24;37.42;;;7.18;;
79047;SDS011;68680;50.764;6.120;2024-03-23T01:17:50;21.60;;;7.18;;
79047;SDS011;68680;50.764;6.120;2024-03-23T01:20:15;25.98;;;6.32;;
79047;SDS011;68680;50.764;6.120;2024-03-23T01:22:41;25.02;;;6.18;;
79047;SDS011;68680;50.764;6.120;2024-03-23T01:25:07;21.65;;;7.03;;
79047;SDS011;68680;50.764;6.120;2024-03-23T01:27:34;34.40;;;7.65;;
79047;SDS011;68680;50.764;6.120;2024-03-23T01:30:00;33.08;;;7.85;;
79047;SDS011;68680;50.764;6.120;2024-03-23T01:32:26;28.58;;;7.13;;
79047;SDS011;68680;50.764;6.120;2024-03-23T01:34:52;12.25;;;4.65;;
79047;SDS011;68680;50.764;6.120;2024-03-23T01:37:17;13.95;;;4.45;;
79047;SDS011;68680;50.764;6.120;2024-03-23T01:39:43;12.23;;;3.50;;
79047;SDS011;68680;50.764;6.120;2024-03-23T01:42:09;20.23;;;3.72;;
79047;SDS011;68680;50.764;6.120;2024-03-23T01:44:36;18.65;;;3.47;;
79047;SDS011;68680;50.764;6.120;2024-03-23T01:47:02;23.33;;;3.15;;
79047;SDS011;68680;50.764;6.120;2024-03-23T01:49:28;20.95;;;4.22;;
79047;SDS011;68680;50.764;6.120;2024-03-23T01:51:54;14.63;;;3.45;;
79047;SDS011;68680;50.764;6.120;2024-03-23T01:54:20;14.50;;;3.83;;
79047;SDS011;68680;50.764;6.120;2024-03-23T01:56:48;20.88;;;3.67;;
79047;SDS011;68680;50.764;6.120;2024-03-23T01:59:14;15.80;;;3.90;;
79047;SDS011;68680;50.764;6.120;2024-03-23T02:01:41;19.00;;;4.03;;
79047;SDS011;68680;50.764;6.120;2024-03-23T02:04:07;21.67;;;4.20;;
79047;SDS011;68680;50.764;6.120;2024-03-23T02:06:33;15.90;;;3.60;;
79047;SDS011;68680;50.764;6.120;2024-03-23T02:08:58;16.52;;;3.65;;
79047;SDS011;68680;50.764;6.120;2024-03-23T02:11:25;11.60;;;4.35;;
79047;SDS011;68680;50.764;6.120;2024-03-23T02:13:51;12.55;;;3.35;;
79047;SDS011;68680;50.764;6.120;2024-03-23T02:16:17;12.60;;;2.90;;
79047;SDS011;68680;50.764;6.120;2024-03-23T02:18:44;15.18;;;5.03;;
79047;SDS011;68680;50.764;6.120;2024-03-23T02:21:10;13.27;;;3.78;;
79047;SDS011;68680;50.764;6.120;2024-03-23T02:23:37;17.85;;;4.13;;
79047;SDS011;68680;50.764;6.120;2024-03-23T02:26:03;11.68;;;3.50;;
79047;SDS011;68680;50.764;6.120;2024-03-23T02:28:28;28.23;;;4.75;;
79047;SDS011;68680;50.764;6.120;2024-03-23T02:30:54;16.05;;;3.90;;
79047;SDS011;68680;50.764;6.120;2024-03-23T02:33:20;20.27;;;4.13;;
79047;SDS011;68680;50.764;6.120;2024-03-23T02:35:46;19.95;;;6.30;;
79047;SDS011;68680;50.764;6.120;2024-03-23T02:38:12;10.70;;;4.43;;
79047;SDS011;68680;50.764;6.120;2024-03-23T02:40:39;14.25;;;3.45;;
79047;SDS011;68680;50.764;6.120;2024-03-23T02:43:05;17.90;;;3.88;;
79047;SDS011;68680;50.764;6.120;2024-03-23T02:45:31;23.60;;;3.78;;
79047;SDS011;68680;50.764;6.120;2024-03-23T02:47:57;17.15;;;4.03;;
79047;SDS011;68680;50.764;6.120;2024-03-23T02:50:22;20.02;;;4.20;;
79047;SDS011;68680;50.764;6.120;2024-03-23T02:52:48;20.15;;;4.28;;
79047;SDS011;68680;50.764;6.120;2024-03-23T02:55:14;17.35;;;4.13;;
79047;SDS011;68680;50.764;6.120;2024-03-23T02:57:42;22.85;;;4.07;;
79047;SDS011;68680;50.764;6.120;2024-03-23T03:00:08;22.67;;;5.47;;
79047;SDS011;68680;50.764;6.120;2024-03-23T03:02:35;20.10;;;3.33;;
79047;SDS011;68680;50.764;6.120;2024-03-23T03:05:01;23.58;;;4.57;;
79047;SDS011;68680;50.764;6.120;2024-03-23T03:07:27;20.30;;;4.00;;
79047;SDS011;68680;50.764;6.120;2024-03-23T03:09:53;38.30;;;6.35;;
79047;SDS011;68680;50.764;6.120;2024-03-23T03:12:18;30.85;;;4.30;;
79047;SDS011;68680;50.764;6.120;2024-03-23T03:14:45;15.48;;;4.25;;
79047;SDS011;68680;50.764;6.120;2024-03-23T03:17:11;21.58;;;4.80;;
79047;SDS011;68680;50.764;6.120;2024-03-23T03:19:37;18.05;;;4.70;;
79047;SDS011;68680;50.764;6.120;2024-03-23T03:22:03;14.82;;;4.05;;
79047;SDS011;68680;50.764;6.120;2024-03-23T03:24:29;13.45;;;3.70;;
79047;SDS011;68680;50.764;6.120;2024-03-23T03:26:55;18.35;;;3.63;;
79047;SDS011;68680;50.764;6.120;2024-03-23T03:29:20;19.92;;;4.18;;
79047;SDS011;68680;50.764;6.120;2024-03-23T03:31:47;14.43;;;3.67;;
79047;SDS011;68680;50.764;6.120;2024-03-23T03:34:13;19.20;;;4.45;;
79047;SDS011;68680;50.764;6.120;2024-03-23T03:36:39;24.08;;;4.32;;
79047;SDS011;68680;50.764;6.120;2024-03-23T03:39:05;17.85;;;4.70;;
79047;SDS011;68680;50.764;6.120;2024-03-23T03:41:31;18.92;;;4.55;;
79047;SDS011;68680;50.764;6.120;2024-03-23T03:43:57;20.65;;;4.93;;
79047;SDS011;68680;50.764;6.120;2024-03-23T03:46:23;18.85;;;5.28;;
79047;SDS011;68680;50.764;6.120;2024-03-23T03:48:50;20.77;;;3.83;;
79047;SDS011;68680;50.764;6.120;2024-03-23T03:51:16;20.65;;;5.18;;
79047;SDS011;68680;50.764;6.120;2024-03-23T03:53:41;22.73;;;4.55;;
79047;SDS011;68680;50.764;6.120;2024-03-23T03:56:07;18.60;;;5.22;;
79047;SDS011;68680;50.764;6.120;2024-03-23T03:58:33;23.80;;;4.28;;
79047;SDS011;68680;50.764;6.120;2024-03-23T04:00:59;21.80;;;4.43;;
79047;SDS011;68680;50.764;6.120;2024-03-23T04:03:24;17.70;;;4.03;;
79047;SDS011;68680;50.764;6.120;2024-03-23T04:05:52;19.50;;;3.92;;
79047;SDS011;68680;50.764;6.120;2024-03-23T04:08:19;29.15;;;4.53;;
79047;SDS011;68680;50.764;6.120;2024-03-23T04:10:45;21.75;;;4.15;;
79047;SDS011;68680;50.764;6.120;2024-03-23T04:13:11;17.88;;;4.03;;
79047;SDS011;68680;50.764;6.120;2024-03-23T04:15:37;26.75;;;3.88;;
79047;SDS011;68680;50.764;6.120;2024-03-23T04:18:03;26.75;;;6.03;;
79047;SDS011;68680;50.764;6.120;2024-03-23T04:20:29;15.80;;;4.65;;
79047;SDS011;68680;50.764;6.120;2024-03-23T04:22:56;20.55;;;4.82;;
79047;SDS011;68680;50.764;6.120;2024-03-23T04:25:22;14.95;;;4.53;;
79047;SDS011;68680;50.764;6.120;2024-03-23T04:27:48;37.35;;;4.90;;
79047;SDS011;68680;50.764;6.120;2024-03-23T04:30:14;32.35;;;4.80;;
79047;SDS011;68680;50.764;6.120;2024-03-23T04:32:39;24.35;;;6.40;;
79047;SDS011;68680;50.764;6.120;2024-03-23T04:35:05;25.58;;;6.63;;
79047;SDS011;68680;50.764;6.120;2024-03-23T04:37:32;15.55;;;4.45;;
79047;SDS011;68680;50.764;6.120;2024-03-23T04:39:59;16.90;;;5.25;;
79047;SDS011;68680;50.764;6.120;2024-03-23T04:42:25;19.38;;;5.07;;
79047;SDS011;68680;50.764;6.120;2024-03-23T04:44:51;23.38;;;5.97;;
79047;SDS011;68680;50.764;6.120;2024-03-23T04:47:16;14.57;;;4.53;;
79047;SDS011;68680;50.764;6.120;2024-03-23T04:49:42;22.50;;;5.00;;
79047;SDS011;68680;50.764;6.120;2024-03-23T04:52:08;18.60;;;5.30;;
79047;SDS011;68680;50.764;6.120;2024-03-23T04:54:34;20.70;;;5.32;;
79047;SDS011;68680;50.764;6.120;2024-03-23T04:57:01;19.40;;;6.25;;
79047;SDS011;68680;50.764;6.120;2024-03-23T04:59:27;21.63;;;5.53;;
79047;SDS011;68680;50.764;6.120;2024-03-23T05:01:52;19.35;;;5.82;;
79047;SDS011;68680;50.764;6.120;2024-03-23T05:04:18;23.63;;;5.75;;
79047;SDS011;68680;50.764;6.120;2024-03-23T05:06:44;20.98;;;5.07;;
79047;SDS011;68680;50.764;6.120;2024-03-23T05:09:10;25.17;;;6.63;;
79047;SDS011;68680;50.764;6.120;2024-03-23T05:11:35;22.45;;;5.82;;
79047;SDS011;68680;50.764;6.120;2024-03-23T05:14:03;19.83;;;5.72;;
79047;SDS011;68680;50.764;6.120;2024-03-23T05:16:28;26.38;;;6.35;;
79047;SDS011;68680;50.764;6.120;2024-03-23T05:18:54;26.08;;;9.23;;
79047;SDS011;68680;50.764;6.120;2024-03-23T05:21:20;28.48;;;7.45;;
79047;SDS011;68680;50.764;6.120;2024-03-23T05:23:46;30.52;;;8.45;;
79047;SDS011;68680;50.764;6.120;2024-03-23T05:26:12;26.13;;;9.88;;
79047;SDS011;68680;50.764;6.120;2024-03-23T05:28:38;32.35;;;10.95;;
79047;SDS011;68680;50.764;6.120;2024-03-23T05:31:05;34.85;;;10.52;;
79047;SDS011;68680;50.764;6.120;2024-03-23T05:33:31;28.08;;;10.65;;
79047;SDS011;68680;50.764;6.120;2024-03-23T05:35:57;30.52;;;11.18;;
79047;SDS011;68680;50.764;6.120;2024-03-23T05:38:24;29.80;;;11.52;;
79047;SDS011;68680;50.764;6.120;2024-03-23T05:40:53;30.35;;;11.60;;
79047;SDS011;68680;50.764;6.120;2024-03-23T05:43:19;24.67;;;10.43;;
79047;SDS011;68680;50.764;6.120;2024-03-23T05:45:45;30.27;;;10.90;;
79047;SDS011;68680;50.764;6.120;2024-03-23T05:48:12;30.73;;;11.52;;
79047;SDS011;68680;50.764;6.120;2024-03-23T05:50:38;39.67;;;12.73;;
79047;SDS011;68680;50.764;6.120;2024-03-23T05:53:03;33.63;;;12.18;;
79047;SDS011;68680;50.764;6.120;2024-03-23T05:55:29;34.20;;;11.82;;
79047;SDS011;68680;50.764;6.120;2024-03-23T05:57:55;29.48;;;11.90;;
79047;SDS011;68680;50.764;6.120;2024-03-23T06:00:21;40.53;;;12.90;;
79047;SDS011;68680;50.764;6.120;2024-03-23T06:02:47;40.55;;;12.60;;
79047;SDS011;68680;50.764;6.120;2024-03-23T06:05:14;36.03;;;13.43;;
79047;SDS011;68680;50.764;6.120;2024-03-23T06:07:40;41.15;;;14.95;;
79047;SDS011;68680;50.764;6.120;2024-03-23T06:10:06;41.15;;;14.85;;
79047;SDS011;68680;50.764;6.120;2024-03-23T06:12:33;47.40;;;15.40;;
79047;SDS011;68680;50.764;6.120;2024-03-23T06:14:58;43.97;;;17.08;;
79047;SDS011;68680;50.764;6.120;2024-03-23T06:17:24;45.90;;;17.85;;
79047;SDS011;68680;50.764;6.120;2024-03-23T06:19:50;45.97;;;16.73;;
79047;SDS011;68680;50.764;6.120;2024-03-23T06:22:17;57.35;;;18.05;;
79047;SDS011;68680;50.764;6.120;2024-03-23T06:24:44;52.92;;;19.27;;
79047;SDS011;68680;50.764;6.120;2024-03-23T06:27:09;58.88;;;19.52;;
79047;SDS011;68680;50.764;6.120;2024-03-23T06:29:35;51.80;;;20.05;;
79047;SDS011;68680;50.764;6.120;2024-03-23T06:32:01;60.90;;;22.17;;
79047;SDS011;68680;50.764;6.120;2024-03-23T06:34:27;62.60;;;22.13;;
79047;SDS011;68680;50.764;6.120;2024-03-23T06:36:52;58.80;;;21.08;;
79047;SDS011;68680;50.764;6.120;2024-03-23T06:39:20;55.35;;;21.38;;
79047;SDS011;68680;50.764;6.120;2024-03-23T06:41:51;60.53;;;22.13;;
79047;SDS011;68680;50.764;6.120;2024-03-23T06:44:18;56.13;;;21.80;;
79047;SDS011;68680;50.764;6.120;2024-03-23T06:46:45;49.10;;;19.20;;
79047;SDS011;68680;50.764;6.120;2024-03-23T06:49:11;55.17;;;20.00;;
79047;SDS011;68680;50.764;6.120;2024-03-23T06:51:37;49.10;;;19.13;;
79047;SDS011;68680;50.764;6.120;2024-03-23T06:54:03;44.33;;;18.10;;
79047;SDS011;68680;50.764;6.120;2024-03-23T06:56:31;54.28;;;20.20;;
79047;SDS011;68680;50.764;6.120;2024-03-23T06:58:56;41.30;;;17.27;;
79047;SDS011;68680;50.764;6.120;2024-03-23T07:01:22;55.95;;;18.10;;
79047;SDS011;68680;50.764;6.120;2024-03-23T07:03:48;46.58;;;17.95;;
79047;SDS011;68680;50.764;6.120;2024-03-23T07:06:14;41.05;;;17.20;;
79047;SDS011;68680;50.764;6.120;2024-03-23T07:08:40;32.10;;;14.82;;
79047;SDS011;68680;50.764;6.120;2024-03-23T07:11:06;39.85;;;14.50;;
79047;SDS011;68680;50.764;6.120;2024-03-23T07:13:33;38.63;;;14.18;;
79047;SDS011;68680;50.764;6.120;2024-03-23T07:15:59;39.70;;;14.13;;
79047;SDS011;68680;50.764;6.120;2024-03-23T07:18:24;34.65;;;13.77;;
79047;SDS011;68680;50.764;6.120;2024-03-23T07:20:53;39.75;;;15.55;;
79047;SDS011;68680;50.764;6.120;2024-03-23T07:23:20;36.92;;;13.27;;
79047;SDS011;68680;50.764;6.120;2024-03-23T07:25:55;37.80;;;16.05;;
79047;SDS011;68680;50.764;6.120;2024-03-23T07:28:22;38.10;;;15.43;;
79047;SDS011;68680;50.764;6.120;2024-03-23T07:30:49;40.15;;;16.38;;
79047;SDS011;68680;50.764;6.120;2024-03-23T07:33:28;39.17;;;16.53;;
79047;SDS011;68680;50.764;6.120;2024-03-23T07:35:53;34.75;;;15.07;;
79047;SDS011;68680;50.764;6.120;2024-03-23T07:38:19;35.28;;;14.38;;
79047;SDS011;68680;50.764;6.120;2024-03-23T07:40:45;34.08;;;13.38;;
79047;SDS011;68680;50.764;6.120;2024-03-23T07:43:11;34.40;;;12.38;;
79047;SDS011;68680;50.764;6.120;2024-03-23T07:45:37;30.27;;;12.18;;
79047;SDS011;68680;50.764;6.120;2024-03-23T07:48:04;30.75;;;12.50;;
79047;SDS011;68680;50.764;6.120;2024-03-23T07:50:30;28.10;;;11.10;;
79047;SDS011;68680;50.764;6.120;2024-03-23T07:52:56;30.27;;;11.95;;
79047;SDS011;68680;50.764;6.120;2024-03-23T07:55:22;26.52;;;9.73;;
79047;SDS011;68680;50.764;6.120;2024-03-23T07:57:48;21.45;;;9.50;;
79047;SDS011;68680;50.764;6.120;2024-03-23T08:00:16;20.08;;;6.57;;
79047;SDS011;68680;50.764;6.120;2024-03-23T08:02:42;19.58;;;5.75;;
79047;SDS011;68680;50.764;6.120;2024-03-23T08:05:09;15.45;;;5.18;;
79047;SDS011;68680;50.764;6.120;2024-03-23T08:07:35;14.90;;;5.90;;
79047;SDS011;68680;50.764;6.120;2024-03-23T08:10:01;15.02;;;4.85;;
79047;SDS011;68680;50.764;6.120;2024-03-23T08:12:27;20.42;;;6.18;;
79047;SDS011;68680;50.764;6.120;2024-03-23T08:14:52;17.17;;;5.70;;
79047;SDS011;68680;50.764;6.120;2024-03-23T08:17:18;16.98;;;4.40;;
79047;SDS011;68680;50.764;6.120;2024-03-23T08:19:44;24.52;;;5.15;;
79047;SDS011;68680;50.764;6.120;2024-03-23T08:22:11;15.95;;;4.88;;
79047;SDS011;68680;50.764;6.120;2024-03-23T08:24:37;14.70;;;5.13;;
79047;SDS011;68680;50.764;6.120;2024-03-23T08:27:02;14.38;;;4.85;;
79047;SDS011;68680;50.764;6.120;2024-03-23T08:29:29;22.40;;;5.95;;
79047;SDS011;68680;50.764;6.120;2024-03-23T08:31:54;13.38;;;4.70;;
79047;SDS011;68680;50.764;6.120;2024-03-23T08:34:20;15.27;;;4.95;;
79047;SDS011;68680;50.764;6.120;2024-03-23T08:36:46;14.75;;;5.03;;
79047;SDS011;68680;50.764;6.120;2024-03-23T08:39:13;14.27;;;5.22;;
79047;SDS011;68680;50.764;6.120;2024-03-23T08:41:39;14.57;;;4.80;;
79047;SDS011;68680;50.764;6.120;2024-03-23T08:44:05;20.70;;;4.75;;
79047;SDS011;68680;50.764;6.120;2024-03-23T08:46:31;13.98;;;5.22;;
79047;SDS011;68680;50.764;6.120;2024-03-23T08:48:57;17.83;;;5.30;;
79047;SDS011;68680;50.764;6.120;2024-03-23T08:51:22;16.35;;;4.50;;
79047;SDS011;68680;50.764;6.120;2024-03-23T08:53:48;16.58;;;5.97;;
79047;SDS011;68680;50.764;6.120;2024-03-23T08:56:15;12.68;;;5.25;;
79047;SDS011;68680;50.764;6.120;2024-03-23T08:58:41;15.82;;;5.15;;
79047;SDS011;68680;50.764;6.120;2024-03-23T09:01:08;13.95;;;4.70;;
79047;SDS011;68680;50.764;6.120;2024-03-23T09:03:35;17.17;;;5.32;;
79047;SDS011;68680;50.764;6.120;2024-03-23T09:06:02;17.35;;;4.90;;
79047;SDS011;68680;50.764;6.120;2024-03-23T09:08:32;20.75;;;6.45;;
79047;SDS011;68680;50.764;6.120;2024-03-23T09:10:57;16.65;;;5.60;;
79047;SDS011;68680;50.764;6.120;2024-03-23T09:13:30;17.88;;;5.53;;
79047;SDS011;68680;50.764;6.120;2024-03-23T09:15:56;19.83;;;5.28;;
79047;SDS011;68680;50.764;6.120;2024-03-23T09:18:22;11.60;;;5.40;;
79047;SDS011;68680;50.764;6.120;2024-03-23T09:20:48;14.43;;;4.10;;
79047;SDS011;68680;50.764;6.120;2024-03-23T09:23:13;13.93;;;4.20;;
79047;SDS011;68680;50.764;6.120;2024-03-23T09:25:39;8.88;;;3.80;;
79047;SDS011;68680;50.764;6.120;2024-03-23T09:28:05;12.98;;;4.00;;
79047;SDS011;68680;50.764;6.120;2024-03-23T09:30:34;7.63;;;3.25;;
79047;SDS011;68680;50.764;6.120;2024-03-23T09:33:00;9.27;;;2.55;;
79047;SDS011;68680;50.764;6.120;2024-03-23T09:35:26;9.73;;;2.08;;
79047;SDS011;68680;50.764;6.120;2024-03-23T09:37:52;6.47;;;1.83;;
79047;SDS011;68680;50.764;6.120;2024-03-23T09:40:18;5.90;;;1.33;;
79047;SDS011;68680;50.764;6.120;2024-03-23T09:42:49;4.53;;;1.50;;
79047;SDS011;68680;50.764;6.120;2024-03-23T09:45:16;5.90;;;1.93;;
79047;SDS011;68680;50.764;6.120;2024-03-23T09:47:48;5.68;;;1.65;;
79047;SDS011;68680;50.764;6.120;2024-03-23T09:50:14;6.38;;;1.70;;
79047;SDS011;68680;50.764;6.120;2024-03-23T09:52:40;9.05;;;2.00;;
79047;SDS011;68680;50.764;6.120;2024-03-23T09:55:06;8.18;;;2.00;;
79047;SDS011;68680;50.764;6.120;2024-03-23T09:57:33;9.98;;;2.90;;
79047;SDS011;68680;50.764;6.120;2024-03-23T09:59:59;7.13;;;2.47;;
79047;SDS011;68680;50.764;6.120;2024-03-23T10:02:25;14.40;;;4.03;;
79047;SDS011;68680;50.764;6.120;2024-03-23T10:04:52;9.90;;;2.92;;
79047;SDS011;68680;50.764;6.120;2024-03-23T10:07:18;10.65;;;4.53;;
79047;SDS011;68680;50.764;6.120;2024-03-23T10:09:45;11.55;;;3.70;;
79047;SDS011;68680;50.764;6.120;2024-03-23T10:12:13;15.55;;;6.13;;
79047;SDS011;68680;50.764;6.120;2024-03-23T10:14:40;14.95;;;4.45;;
79047;SDS011;68680;50.764;6.120;2024-03-23T10:17:15;17.35;;;5.20;;
79047;SDS011;68680;50.764;6.120;2024-03-23T10:19:42;14.43;;;5.28;;
79047;SDS011;68680;50.764;6.120;2024-03-23T10:22:17;12.25;;;5.25;;
79047;SDS011;68680;50.764;6.120;2024-03-23T10:24:44;12.10;;;5.22;;
79047;SDS011;68680;50.764;6.120;2024-03-23T10:27:12;18.83;;;7.13;;
79047;SDS011;68680;50.764;6.120;2024-03-23T10:32:07;19.77;;;7.32;;
79047;SDS011;68680;50.764;6.120;2024-03-23T10:34:34;13.77;;;6.78;;
79047;SDS011;68680;50.764;6.120;2024-03-23T10:37:01;12.18;;;5.82;;
79047;SDS011;68680;50.764;6.120;2024-03-23T10:39:30;15.88;;;5.68;;
79047;SDS011;68680;50.764;6.120;2024-03-23T10:41:58;9.88;;;4.20;;
79047;SDS011;68680;50.764;6.120;2024-03-23T10:44:27;11.10;;;5.82;;
79047;SDS011;68680;50.764;6.120;2024-03-23T10:46:54;6.72;;;4.43;;
79047;SDS011;68680;50.764;6.120;2024-03-23T10:49:20;11.93;;;4.95;;
79047;SDS011;68680;50.764;6.120;2024-03-23T10:51:46;15.15;;;6.53;;
79047;SDS011;68680;50.764;6.120;2024-03-23T10:54:12;10.60;;;5.07;;
79047;SDS011;68680;50.764;6.120;2024-03-23T10:56:39;12.82;;;4.95;;
79047;SDS011;68680;50.764;6.120;2024-03-23T10:59:06;11.10;;;4.82;;
79047;SDS011;68680;50.764;6.120;2024-03-23T11:01:33;13.00;;;5.05;;
79047;SDS011;68680;50.764;6.120;2024-03-23T11:03:59;13.60;;;4.85;;
79047;SDS011;68680;50.764;6.120;2024-03-23T11:06:34;7.70;;;3.45;;
79047;SDS011;68680;50.764;6.120;2024-03-23T11:09:02;10.18;;;4.25;;
79047;SDS011;68680;50.764;6.120;2024-03-23T11:11:28;11.23;;;4.28;;
79047;SDS011;68680;50.764;6.120;2024-03-23T11:13:55;9.50;;;3.88;;
79047;SDS011;68680;50.764;6.120;2024-03-23T11:16:22;6.75;;;3.35;;
79047;SDS011;68680;50.764;6.120;2024-03-23T11:18:51;9.82;;;3.78;;
79047;SDS011;68680;50.764;6.120;2024-03-23T11:24:17;8.50;;;3.30;;
79047;SDS011;68680;50.764;6.120;2024-03-23T11:26:44;13.77;;;4.80;;
79047;SDS011;68680;50.764;6.120;2024-03-23T11:29:12;12.35;;;4.25;;
79047;SDS011;68680;50.764;6.120;2024-03-23T11:31:44;11.68;;;4.07;;
79047;SDS011;68680;50.764;6.120;2024-03-23T11:34:11;7.22;;;3.15;;
79047;SDS011;68680;50.764;6.120;2024-03-23T11:36:37;9.70;;;3.25;;
79047;SDS011;68680;50.764;6.120;2024-03-23T11:39:11;11.73;;;4.20;;
79047;SDS011;68680;50.764;6.120;2024-03-23T11:41:44;6.25;;;2.72;;
79047;SDS011;68680;50.764;6.120;2024-03-23T11:44:15;4.50;;;3.13;;
79047;SDS011;68680;50.764;6.120;2024-03-23T11:46:42;11.27;;;3.55;;
79047;SDS011;68680;50.764;6.120;2024-03-23T11:49:19;16.33;;;5.50;;
79047;SDS011;68680;50.764;6.120;2024-03-23T11:51:46;21.13;;;5.60;;
79047;SDS011;68680;50.764;6.120;2024-03-23T11:54:12;11.80;;;3.45;;
79047;SDS011;68680;50.764;6.120;2024-03-23T11:56:38;5.78;;;3.17;;
79047;SDS011;68680;50.764;6.120;2024-03-23T11:59:03;8.18;;;2.88;;
79047;SDS011;68680;50.764;6.120;2024-03-23T12:01:31;4.70;;;2.58;;
79047;SDS011;68680;50.764;6.120;2024-03-23T12:03:57;6.00;;;2.90;;
79047;SDS011;68680;50.764;6.120;2024-03-23T12:06:22;9.20;;;3.10;;
79047;SDS011;68680;50.764;6.120;2024-03-23T12:08:48;13.65;;;4.05;;
79047;SDS011;68680;50.764;6.120;2024-03-23T12:11:15;5.47;;;2.50;;
79047;SDS011;68680;50.764;6.120;2024-03-23T12:13:43;6.15;;;2.55;;
79047;SDS011;68680;50.764;6.120;2024-03-23T12:16:10;5.63;;;2.70;;
79047;SDS011;68680;50.764;6.120;2024-03-23T12:18:40;8.95;;;3.28;;
79047;SDS011;68680;50.764;6.120;2024-03-23T12:21:07;7.20;;;2.78;;
79047;SDS011;68680;50.764;6.120;2024-03-23T12:23:33;8.45;;;3.22;;
79047;SDS011;68680;50.764;6.120;2024-03-23T12:26:00;5.88;;;2.65;;
79047;SDS011;68680;50.764;6.120;2024-03-23T12:28:26;11.48;;;2.10;;
79047;SDS011;68680;50.764;6.120;2024-03-23T12:30:52;7.53;;;1.83;;
79047;SDS011;68680;50.764;6.120;2024-03-23T12:33:19;6.70;;;1.98;;
79047;SDS011;68680;50.764;6.120;2024-03-23T12:35:46;6.72;;;1.67;;
79047;SDS011;68680;50.764;6.120;2024-03-23T12:38:12;5.95;;;1.42;;
79047;SDS011;68680;50.764;6.120;2024-03-23T12:40:38;4.43;;;1.67;;
79047;SDS011;68680;50.764;6.120;2024-03-23T12:43:04;4.97;;;1.38;;
79047;SDS011;68680;50.764;6.120;2024-03-23T12:45:29;3.58;;;1.25;;
79047;SDS011;68680;50.764;6.120;2024-03-23T12:47:55;3.90;;;1.10;;
79047;SDS011;68680;50.764;6.120;2024-03-23T12:50:21;8.90;;;1.88;;
79047;SDS011;68680;50.764;6.120;2024-03-23T12:52:48;6.13;;;1.25;;
79047;SDS011;68680;50.764;6.120;2024-03-23T12:55:14;4.13;;;1.08;;
79047;SDS011;68680;50.764;6.120;2024-03-23T12:57:40;8.02;;;1.98;;
79047;SDS011;68680;50.764;6.120;2024-03-23T13:00:07;11.07;;;1.60;;
79047;SDS011;68680;50.764;6.120;2024-03-23T13:02:34;5.45;;;1.70;;
79047;SDS011;68680;50.764;6.120;2024-03-23T13:04:59;8.75;;;1.42;;
79047;SDS011;68680;50.764;6.120;2024-03-23T13:07:25;6.55;;;1.23;;
79047;SDS011;68680;50.764;6.120;2024-03-23T13:09:53;4.60;;;1.20;;
79047;SDS011;68680;50.764;6.120;2024-03-23T13:12:19;8.82;;;1.65;;
79047;SDS011;68680;50.764;6.120;2024-03-23T13:14:45;3.33;;;1.52;;
79047;SDS011;68680;50.764;6.120;2024-03-23T13:17:11;5.60;;;1.75;;
79047;SDS011;68680;50.764;6.120;2024-03-23T13:19:37;5.55;;;1.30;;
79047;SDS011;68680;50.764;6.120;2024-03-23T13:22:03;3.80;;;1.20;;
79047;SDS011;68680;50.764;6.120;2024-03-23T13:24:29;5.97;;;1.92;;
79047;SDS011;68680;50.764;6.120;2024-03-23T13:26:57;7.00;;;1.95;;
79047;SDS011;68680;50.764;6.120;2024-03-23T13:29:23;6.60;;;2.45;;
79047;SDS011;68680;50.764;6.120;2024-03-23T13:31:50;4.22;;;2.42;;
79047;SDS011;68680;50.764;6.120;2024-03-23T13:34:17;5.93;;;2.20;;
79047;SDS011;68680;50.764;6.120;2024-03-23T13:36:43;7.90;;;2.25;;
79047;SDS011;68680;50.764;6.120;2024-03-23T13:39:11;3.90;;;1.65;;
79047;SDS011;68680;50.764;6.120;2024-03-23T13:41:38;8.02;;;2.95;;
79047;SDS011;68680;50.764;6.120;2024-03-23T13:44:05;1.63;;;0.90;;
79047;SDS011;68680;50.764;6.120;2024-03-23T13:46:31;4.93;;;1.00;;
79047;SDS011;68680;50.764;6.120;2024-03-23T13:48:58;7.30;;;1.33;;
79047;SDS011;68680;50.764;6.120;2024-03-23T13:51:24;4.93;;;1.38;;
79047;SDS011;68680;50.764;6.120;2024-03-23T13:53:50;3.35;;;1.17;;
79047;SDS011;68680;50.764;6.120;2024-03-23T13:56:16;6.65;;;1.35;;
79047;SDS011;68680;50.764;6.120;2024-03-23T13:58:42;5.95;;;1.70;;
79047;SDS011;68680;50.764;6.120;2024-03-23T14:01:09;3.80;;;1.40;;
79047;SDS011;68680;50.764;6.120;2024-03-23T14:03:35;4.15;;;1.20;;
79047;SDS011;68680;50.764;6.120;2024-03-23T14:06:01;1.85;;;1.00;;
79047;SDS011;68680;50.764;6.120;2024-03-23T14:08:26;4.50;;;1.08;;
79047;SDS011;68680;50.764;6.120;2024-03-23T14:10:52;9.23;;;1.30;;
79047;SDS011;68680;50.764;6.120;2024-03-23T14:13:18;4.57;;;1.40;;
79047;SDS011;68680;50.764;6.120;2024-03-23T14:15:44;5.53;;;1.35;;
79047;SDS011;68680;50.764;6.120;2024-03-23T14:18:11;3.65;;;1.00;;
79047;SDS011;68680;50.764;6.120;2024-03-23T14:20:36;3.15;;;0.95;;
79047;SDS011;68680;50.764;6.120;2024-03-23T14:23:02;3.47;;;1.02;;
79047;SDS011;68680;50.764;6.120;2024-03-23T14:25:29;3.78;;;0.77;;
79047;SDS011;68680;50.764;6.120;2024-03-23T14:27:54;2.53;;;1.48;;
79047;SDS011;68680;50.764;6.120;2024-03-23T14:30:20;0.98;;;0.50;;
79047;SDS011;68680;50.764;6.120;2024-03-23T14:32:46;1.67;;;0.65;;
79047;SDS011;68680;50.764;6.120;2024-03-23T14:35:13;1.52;;;0.32;;
79047;SDS011;68680;50.764;6.120;2024-03-23T14:37:39;1.95;;;0.60;;
79047;SDS011;68680;50.764;6.120;2024-03-23T14:40:05;2.38;;;0.80;;
79047;SDS011;68680;50.764;6.120;2024-03-23T14:42:32;3.63;;;0.65;;
79047;SDS011;68680;50.764;6.120;2024-03-23T14:44:58;1.58;;;0.52;;
79047;SDS011;68680;50.764;6.120;2024-03-23T14:47:23;1.77;;;0.43;;
79047;SDS011;68680;50.764;6.120;2024-03-23T14:49:49;3.05;;;0.80;;
79047;SDS011;68680;50.764;6.120;2024-03-23T14:52:17;1.50;;;0.60;;
79047;SDS011;68680;50.764;6.120;2024-03-23T14:54:43;3.22;;;1.20;;
79047;SDS011;68680;50.764;6.120;2024-03-23T14:57:10;3.15;;;0.80;;
79047;SDS011;68680;50.764;6.120;2024-03-23T14:59:36;6.28;;;0.60;;
79047;SDS011;68680;50.764;6.120;2024-03-23T15:02:02;6.40;;;1.05;;
79047;SDS011;68680;50.764;6.120;2024-03-23T15:04:28;4.40;;;1.48;;
79047;SDS011;68680;50.764;6.120;2024-03-23T15:06:54;5.45;;;2.13;;
79047;SDS011;68680;50.764;6.120;2024-03-23T15:09:21;5.15;;;2.10;;
79047;SDS011;68680;50.764;6.120;2024-03-23T15:11:47;5.32;;;1.77;;
79047;SDS011;68680;50.764;6.120;2024-03-23T15:14:13;8.32;;;1.90;;
79047;SDS011;68680;50.764;6.120;2024-03-23T15:16:38;5.22;;;3.22;;
79047;SDS011;68680;50.764;6.120;2024-03-23T15:19:04;4.90;;;1.95;;
79047;SDS011;68680;50.764;6.120;2024-03-23T15:21:30;4.15;;;1.42;;
79047;SDS011;68680;50.764;6.120;2024-03-23T15:23:56;4.65;;;1.42;;
79047;SDS011;68680;50.764;6.120;2024-03-23T15:26:24;4.63;;;0.88;;
79047;SDS011;68680;50.764;6.120;2024-03-23T15:28:49;6.65;;;1.25;;